sensor_id;sensor_type;location;lat;lon;timestamp;pressure;altitude;pressure_sealevel;temperature;humidity
50710;BME280;37033;49.994;21.992;2023-07-29T00:00:02;98700.30;;;15.41;85.09
50710;BME280;37033;49.994;21.992;2023-07-29T00:02:33;98708.78;;;15.38;84.89
50710;BME280;37033;49.994;21.992;2023-07-29T00:05:05;98710.98;;;15.37;85.15
50710;BME280;37033;49.994;21.992;2023-07-29T00:07:36;98706.29;;;15.34;85.14
50710;BME280;37033;49.994;21.992;2023-07-29T00:10:09;98702.54;;;15.32;85.06
50710;BME280;37033;49.994;21.992;2023-07-29T00:12:39;98701.61;;;15.27;85.26
50710;BME280;37033;49.994;21.992;2023-07-29T00:15:11;98701.99;;;15.20;85.25
50710;BME280;37033;49.994;21.992;2023-07-29T00:17:42;98700.29;;;15.16;85.30
50710;BME280;37033;49.994;21.992;2023-07-29T00:20:12;98696.30;;;15.08;85.40
50710;BME280;37033;49.994;21.992;2023-07-29T00:22:43;98696.47;;;15.02;85.37
50710;BME280;37033;49.994;21.992;2023-07-29T00:25:14;98694.44;;;14.96;85.48
50710;BME280;37033;49.994;21.992;2023-07-29T00:27:45;98691.80;;;14.92;85.50
50710;BME280;37033;49.994;21.992;2023-07-29T00:30:15;98694.82;;;14.91;85.55
50710;BME280;37033;49.994;21.992;2023-07-29T00:32:46;98692.64;;;14.89;85.76
50710;BME280;37033;49.994;21.992;2023-07-29T00:35:17;98693.47;;;14.89;85.61
50710;BME280;37033;49.994;21.992;2023-07-29T00:37:47;98693.75;;;14.88;85.64
50710;BME280;37033;49.994;21.992;2023-07-29T00:40:21;98690.98;;;14.84;85.48
50710;BME280;37033;49.994;21.992;2023-07-29T00:42:52;98684.80;;;14.78;85.43
50710;BME280;37033;49.994;21.992;2023-07-29T00:45:24;98688.46;;;14.73;85.44
50710;BME280;37033;49.994;21.992;2023-07-29T00:47:56;98692.38;;;14.67;85.55
50710;BME280;37033;49.994;21.992;2023-07-29T00:50:27;98688.66;;;14.61;85.71
50710;BME280;37033;49.994;21.992;2023-07-29T00:52:59;98683.38;;;14.57;85.86
50710;BME280;37033;49.994;21.992;2023-07-29T00:55:30;98687.15;;;14.54;85.89
50710;BME280;37033;49.994;21.992;2023-07-29T00:58:01;98690.82;;;14.53;85.90
50710;BME280;37033;49.994;21.992;2023-07-29T01:00:32;98688.02;;;14.52;86.17
50710;BME280;37033;49.994;21.992;2023-07-29T01:03:03;98688.96;;;14.52;86.19
50710;BME280;37033;49.994;21.992;2023-07-29T01:05:39;98695.14;;;14.52;86.22
50710;BME280;37033;49.994;21.992;2023-07-29T01:08:20;98692.15;;;14.52;86.26
50710;BME280;37033;49.994;21.992;2023-07-29T01:11:01;98691.54;;;14.52;86.42
50710;BME280;37033;49.994;21.992;2023-07-29T01:13:37;98691.68;;;14.53;86.44
50710;BME280;37033;49.994;21.992;2023-07-29T01:16:16;98692.57;;;14.53;86.66
50710;BME280;37033;49.994;21.992;2023-07-29T01:18:49;98692.52;;;14.53;86.80
50710;BME280;37033;49.994;21.992;2023-07-29T01:21:22;98691.52;;;14.54;86.93
50710;BME280;37033;49.994;21.992;2023-07-29T01:23:59;98688.69;;;14.54;86.98
50710;BME280;37033;49.994;21.992;2023-07-29T01:26:30;98695.42;;;14.53;86.92
50710;BME280;37033;49.994;21.992;2023-07-29T01:29:01;98694.60;;;14.51;87.01
50710;BME280;37033;49.994;21.992;2023-07-29T01:31:37;98698.06;;;14.50;86.93
50710;BME280;37033;49.994;21.992;2023-07-29T01:34:15;98694.08;;;14.48;87.10
50710;BME280;37033;49.994;21.992;2023-07-29T01:36:48;98694.32;;;14.45;87.11
50710;BME280;37033;49.994;21.992;2023-07-29T01:39:22;98693.36;;;14.42;87.06
50710;BME280;37033;49.994;21.992;2023-07-29T01:41:54;98691.13;;;14.40;87.27
50710;BME280;37033;49.994;21.992;2023-07-29T01:44:25;98693.92;;;14.39;87.22
50710;BME280;37033;49.994;21.992;2023-07-29T01:46:58;98693.00;;;14.38;87.54
50710;BME280;37033;49.994;21.992;2023-07-29T01:49:28;98688.26;;;14.37;87.62
50710;BME280;37033;49.994;21.992;2023-07-29T01:51:59;98682.52;;;14.36;87.78
50710;BME280;37033;49.994;21.992;2023-07-29T01:54:30;98689.98;;;14.38;88.04
50710;BME280;37033;49.994;21.992;2023-07-29T01:57:01;98682.72;;;14.39;88.04
50710;BME280;37033;49.994;21.992;2023-07-29T01:59:32;98687.07;;;14.41;88.27
50710;BME280;37033;49.994;21.992;2023-07-29T02:02:03;98693.89;;;14.44;88.65
50710;BME280;37033;49.994;21.992;2023-07-29T02:04:33;98690.64;;;14.48;89.07
50710;BME280;37033;49.994;21.992;2023-07-29T02:07:04;98695.19;;;14.53;89.51
50710;BME280;37033;49.994;21.992;2023-07-29T02:09:35;98696.63;;;14.57;89.83
50710;BME280;37033;49.994;21.992;2023-07-29T02:12:07;98695.23;;;14.60;90.11
50710;BME280;37033;49.994;21.992;2023-07-29T02:14:38;98699.58;;;14.64;89.90
50710;BME280;37033;49.994;21.992;2023-07-29T02:17:09;98702.79;;;14.66;89.64
50710;BME280;37033;49.994;21.992;2023-07-29T02:19:39;98702.77;;;14.68;90.07
50710;BME280;37033;49.994;21.992;2023-07-29T02:22:12;98704.83;;;14.70;90.05
50710;BME280;37033;49.994;21.992;2023-07-29T02:24:43;98705.44;;;14.71;89.81
50710;BME280;37033;49.994;21.992;2023-07-29T02:27:14;98706.92;;;14.70;89.71
50710;BME280;37033;49.994;21.992;2023-07-29T02:29:45;98704.05;;;14.67;89.47
50710;BME280;37033;49.994;21.992;2023-07-29T02:32:16;98706.27;;;14.62;89.30
50710;BME280;37033;49.994;21.992;2023-07-29T02:34:46;98710.72;;;14.57;89.21
50710;BME280;37033;49.994;21.992;2023-07-29T02:37:17;98712.65;;;14.52;89.00
50710;BME280;37033;49.994;21.992;2023-07-29T02:39:48;98710.38;;;14.48;89.01
50710;BME280;37033;49.994;21.992;2023-07-29T02:42:20;98710.73;;;14.43;89.05
50710;BME280;37033;49.994;21.992;2023-07-29T02:44:50;98711.42;;;14.38;89.09
50710;BME280;37033;49.994;21.992;2023-07-29T02:47:21;98715.28;;;14.34;89.15
50710;BME280;37033;49.994;21.992;2023-07-29T02:49:52;98717.59;;;14.31;89.21
50710;BME280;37033;49.994;21.992;2023-07-29T02:52:22;98720.23;;;14.29;89.22
50710;BME280;37033;49.994;21.992;2023-07-29T02:54:53;98715.50;;;14.25;89.34
50710;BME280;37033;49.994;21.992;2023-07-29T02:57:24;98715.79;;;14.23;89.38
50710;BME280;37033;49.994;21.992;2023-07-29T02:59:54;98717.00;;;14.19;89.44
50710;BME280;37033;49.994;21.992;2023-07-29T03:02:25;98722.66;;;14.15;89.46
50710;BME280;37033;49.994;21.992;2023-07-29T03:04:56;98725.50;;;14.14;89.43
50710;BME280;37033;49.994;21.992;2023-07-29T03:07:27;98725.94;;;14.14;89.46
50710;BME280;37033;49.994;21.992;2023-07-29T03:09:58;98728.08;;;14.14;89.39
50710;BME280;37033;49.994;21.992;2023-07-29T03:12:28;98732.50;;;14.13;89.40
50710;BME280;37033;49.994;21.992;2023-07-29T03:15:00;98731.36;;;14.12;89.34
50710;BME280;37033;49.994;21.992;2023-07-29T03:17:31;98727.39;;;14.09;89.20
50710;BME280;37033;49.994;21.992;2023-07-29T03:20:02;98733.04;;;14.06;89.24
50710;BME280;37033;49.994;21.992;2023-07-29T03:22:34;98735.45;;;14.02;89.20
50710;BME280;37033;49.994;21.992;2023-07-29T03:25:06;98735.02;;;14.00;89.21
50710;BME280;37033;49.994;21.992;2023-07-29T03:27:36;98738.70;;;13.96;89.20
50710;BME280;37033;49.994;21.992;2023-07-29T03:30:10;98738.77;;;13.93;89.37
50710;BME280;37033;49.994;21.992;2023-07-29T03:32:45;98739.16;;;13.90;89.45
50710;BME280;37033;49.994;21.992;2023-07-29T03:35:16;98742.23;;;13.88;89.73
50710;BME280;37033;49.994;21.992;2023-07-29T03:37:47;98741.42;;;13.87;89.81
50710;BME280;37033;49.994;21.992;2023-07-29T03:40:17;98744.70;;;13.87;89.99
50710;BME280;37033;49.994;21.992;2023-07-29T03:42:48;98745.02;;;13.89;89.92
50710;BME280;37033;49.994;21.992;2023-07-29T03:45:19;98749.38;;;13.91;90.16
50710;BME280;37033;49.994;21.992;2023-07-29T03:47:50;98750.74;;;13.93;90.20
50710;BME280;37033;49.994;21.992;2023-07-29T03:50:21;98754.50;;;13.96;90.26
50710;BME280;37033;49.994;21.992;2023-07-29T03:52:51;98752.52;;;13.97;90.37
50710;BME280;37033;49.994;21.992;2023-07-29T03:55:22;98748.23;;;14.02;90.44
50710;BME280;37033;49.994;21.992;2023-07-29T03:57:53;98749.98;;;14.08;90.98
50710;BME280;37033;49.994;21.992;2023-07-29T04:00:26;98748.25;;;14.15;90.96
50710;BME280;37033;49.994;21.992;2023-07-29T04:02:57;98745.47;;;14.23;91.07
50710;BME280;37033;49.994;21.992;2023-07-29T04:05:27;98749.41;;;14.32;91.03
50710;BME280;37033;49.994;21.992;2023-07-29T04:07:58;98750.28;;;14.42;91.37
50710;BME280;37033;49.994;21.992;2023-07-29T04:10:29;98750.49;;;14.52;91.38
50710;BME280;37033;49.994;21.992;2023-07-29T04:13:01;98750.73;;;14.62;91.65
50710;BME280;37033;49.994;21.992;2023-07-29T04:15:31;98749.45;;;14.73;91.72
50710;BME280;37033;49.994;21.992;2023-07-29T04:18:02;98749.88;;;14.85;91.86
50710;BME280;37033;49.994;21.992;2023-07-29T04:20:33;98746.33;;;14.97;92.05
50710;BME280;37033;49.994;21.992;2023-07-29T04:23:03;98747.70;;;15.09;91.93
50710;BME280;37033;49.994;21.992;2023-07-29T04:25:34;98749.84;;;15.21;91.82
50710;BME280;37033;49.994;21.992;2023-07-29T04:28:05;98750.34;;;15.33;91.73
50710;BME280;37033;49.994;21.992;2023-07-29T04:30:36;98750.27;;;15.44;91.59
50710;BME280;37033;49.994;21.992;2023-07-29T04:33:06;98751.33;;;15.56;91.46
50710;BME280;37033;49.994;21.992;2023-07-29T04:35:37;98753.10;;;15.69;91.55
50710;BME280;37033;49.994;21.992;2023-07-29T04:38:08;98757.90;;;15.83;91.62
50710;BME280;37033;49.994;21.992;2023-07-29T04:40:39;98754.27;;;15.99;91.67
50710;BME280;37033;49.994;21.992;2023-07-29T04:43:10;98757.55;;;16.13;91.62
50710;BME280;37033;49.994;21.992;2023-07-29T04:45:44;98757.73;;;16.27;91.43
50710;BME280;37033;49.994;21.992;2023-07-29T04:48:15;98759.04;;;16.45;91.54
50710;BME280;37033;49.994;21.992;2023-07-29T04:50:46;98762.83;;;16.65;91.58
50710;BME280;37033;49.994;21.992;2023-07-29T04:53:16;98764.08;;;16.81;91.32
50710;BME280;37033;49.994;21.992;2023-07-29T04:55:47;98763.17;;;16.98;91.38
50710;BME280;37033;49.994;21.992;2023-07-29T04:58:18;98763.75;;;17.17;91.36
50710;BME280;37033;49.994;21.992;2023-07-29T05:00:49;98768.56;;;17.37;91.24
50710;BME280;37033;49.994;21.992;2023-07-29T05:03:19;98765.65;;;17.56;90.84
50710;BME280;37033;49.994;21.992;2023-07-29T05:05:50;98761.21;;;17.73;90.28
50710;BME280;37033;49.994;21.992;2023-07-29T05:08:23;98768.20;;;17.88;90.04
50710;BME280;37033;49.994;21.992;2023-07-29T05:10:54;98766.46;;;18.06;89.51
50710;BME280;37033;49.994;21.992;2023-07-29T05:13:25;98767.02;;;18.19;88.74
50710;BME280;37033;49.994;21.992;2023-07-29T05:15:56;98768.02;;;18.30;88.12
50710;BME280;37033;49.994;21.992;2023-07-29T05:18:26;98768.72;;;18.41;87.82
50710;BME280;37033;49.994;21.992;2023-07-29T05:20:57;98776.64;;;18.56;87.98
50710;BME280;37033;49.994;21.992;2023-07-29T05:23:28;98774.92;;;18.77;87.82
50710;BME280;37033;49.994;21.992;2023-07-29T05:25:58;98778.95;;;18.96;87.63
50710;BME280;37033;49.994;21.992;2023-07-29T05:28:29;98783.83;;;19.18;87.50
50710;BME280;37033;49.994;21.992;2023-07-29T05:31:01;98783.64;;;19.39;86.85
50710;BME280;37033;49.994;21.992;2023-07-29T05:33:32;98786.52;;;19.55;85.75
50710;BME280;37033;49.994;21.992;2023-07-29T05:36:04;98786.34;;;19.69;84.93
50710;BME280;37033;49.994;21.992;2023-07-29T05:38:34;98782.67;;;19.85;85.01
50710;BME280;37033;49.994;21.992;2023-07-29T05:41:05;98785.05;;;20.01;83.88
50710;BME280;37033;49.994;21.992;2023-07-29T05:43:36;98785.96;;;20.12;82.90
50710;BME280;37033;49.994;21.992;2023-07-29T05:46:08;98786.16;;;20.22;82.40
50710;BME280;37033;49.994;21.992;2023-07-29T05:48:38;98788.49;;;20.33;81.99
50710;BME280;37033;49.994;21.992;2023-07-29T05:51:09;98788.65;;;20.43;81.55
50710;BME280;37033;49.994;21.992;2023-07-29T05:53:40;98788.62;;;20.49;80.95
50710;BME280;37033;49.994;21.992;2023-07-29T05:56:10;98788.20;;;20.58;80.05
50710;BME280;37033;49.994;21.992;2023-07-29T05:58:41;98789.89;;;20.69;79.70
50710;BME280;37033;49.994;21.992;2023-07-29T06:01:12;98788.40;;;20.79;79.21
50710;BME280;37033;49.994;21.992;2023-07-29T06:03:42;98791.14;;;20.91;79.09
50710;BME280;37033;49.994;21.992;2023-07-29T06:06:13;98796.02;;;21.01;78.01
50710;BME280;37033;49.994;21.992;2023-07-29T06:08:44;98795.81;;;21.07;77.59
50710;BME280;37033;49.994;21.992;2023-07-29T06:11:15;98794.00;;;21.14;77.39
50710;BME280;37033;49.994;21.992;2023-07-29T06:13:47;98797.96;;;21.25;77.39
50710;BME280;37033;49.994;21.992;2023-07-29T06:16:17;98794.88;;;21.38;76.81
50710;BME280;37033;49.994;21.992;2023-07-29T06:18:48;98794.11;;;21.48;76.28
50710;BME280;37033;49.994;21.992;2023-07-29T06:21:19;98799.41;;;21.60;76.11
50710;BME280;37033;49.994;21.992;2023-07-29T06:23:50;98797.23;;;21.73;75.91
50710;BME280;37033;49.994;21.992;2023-07-29T06:26:20;98794.56;;;21.85;75.38
50710;BME280;37033;49.994;21.992;2023-07-29T06:28:51;98798.23;;;21.94;74.69
50710;BME280;37033;49.994;21.992;2023-07-29T06:31:22;98798.13;;;22.04;74.93
50710;BME280;37033;49.994;21.992;2023-07-29T06:33:52;98796.33;;;22.20;74.61
50710;BME280;37033;49.994;21.992;2023-07-29T06:36:24;98801.42;;;22.32;74.21
50710;BME280;37033;49.994;21.992;2023-07-29T06:38:54;98801.23;;;22.43;73.39
50710;BME280;37033;49.994;21.992;2023-07-29T06:41:25;98801.56;;;22.52;73.30
50710;BME280;37033;49.994;21.992;2023-07-29T06:43:56;98798.27;;;22.62;72.59
50710;BME280;37033;49.994;21.992;2023-07-29T06:46:26;98798.67;;;22.73;72.49
50710;BME280;37033;49.994;21.992;2023-07-29T06:48:57;98800.04;;;22.80;71.15
50710;BME280;37033;49.994;21.992;2023-07-29T06:51:28;98803.94;;;22.81;70.87
50710;BME280;37033;49.994;21.992;2023-07-29T06:54:02;98792.35;;;22.88;71.21
50710;BME280;37033;49.994;21.992;2023-07-29T06:56:33;98793.67;;;22.99;71.52
50710;BME280;37033;49.994;21.992;2023-07-29T06:59:04;98794.44;;;23.16;71.19
50710;BME280;37033;49.994;21.992;2023-07-29T07:01:35;98793.33;;;23.29;70.42
50710;BME280;37033;49.994;21.992;2023-07-29T07:04:06;98798.70;;;23.39;70.19
50710;BME280;37033;49.994;21.992;2023-07-29T07:06:36;98800.66;;;23.57;70.34
50710;BME280;37033;49.994;21.992;2023-07-29T07:09:07;98801.75;;;23.70;69.47
50710;BME280;37033;49.994;21.992;2023-07-29T07:11:38;98800.06;;;23.76;69.33
50710;BME280;37033;49.994;21.992;2023-07-29T07:14:09;98797.28;;;23.78;68.76
50710;BME280;37033;49.994;21.992;2023-07-29T07:16:39;98796.66;;;23.78;68.49
50710;BME280;37033;49.994;21.992;2023-07-29T07:19:10;98798.05;;;23.79;68.08
50710;BME280;37033;49.994;21.992;2023-07-29T07:21:41;98800.14;;;23.74;67.61
50710;BME280;37033;49.994;21.992;2023-07-29T07:24:12;98798.18;;;23.63;67.24
50710;BME280;37033;49.994;21.992;2023-07-29T07:26:42;98800.03;;;23.48;67.18
50710;BME280;37033;49.994;21.992;2023-07-29T07:29:13;98802.73;;;23.36;67.59
50710;BME280;37033;49.994;21.992;2023-07-29T07:31:51;98803.59;;;23.33;67.77
50710;BME280;37033;49.994;21.992;2023-07-29T07:34:23;98804.58;;;23.37;67.59
50710;BME280;37033;49.994;21.992;2023-07-29T07:36:53;98799.20;;;23.46;67.14
50710;BME280;37033;49.994;21.992;2023-07-29T07:39:24;98804.73;;;23.55;66.50
50710;BME280;37033;49.994;21.992;2023-07-29T07:41:55;98803.56;;;23.60;66.90
50710;BME280;37033;49.994;21.992;2023-07-29T07:44:25;98802.64;;;23.72;66.68
50710;BME280;37033;49.994;21.992;2023-07-29T07:46:56;98802.98;;;23.86;67.18
50710;BME280;37033;49.994;21.992;2023-07-29T07:49:27;98806.26;;;24.06;67.00
50710;BME280;37033;49.994;21.992;2023-07-29T07:51:58;98807.89;;;24.24;66.72
50710;BME280;37033;49.994;21.992;2023-07-29T07:54:28;98806.16;;;24.37;66.47
50710;BME280;37033;49.994;21.992;2023-07-29T07:56:59;98804.86;;;24.49;65.68
50710;BME280;37033;49.994;21.992;2023-07-29T07:59:29;98802.48;;;24.55;64.73
50710;BME280;37033;49.994;21.992;2023-07-29T08:02:02;98800.45;;;24.59;65.43
50710;BME280;37033;49.994;21.992;2023-07-29T08:04:33;98793.24;;;24.73;65.28
50710;BME280;37033;49.994;21.992;2023-07-29T08:07:05;98795.63;;;24.84;64.71
50710;BME280;37033;49.994;21.992;2023-07-29T08:09:36;98789.86;;;24.95;64.43
50710;BME280;37033;49.994;21.992;2023-07-29T08:12:07;98791.15;;;25.10;64.70
50710;BME280;37033;49.994;21.992;2023-07-29T08:14:38;98784.61;;;25.28;64.30
50710;BME280;37033;49.994;21.992;2023-07-29T08:17:09;98786.45;;;25.51;63.75
50710;BME280;37033;49.994;21.992;2023-07-29T08:19:40;98787.44;;;25.73;63.72
50710;BME280;37033;49.994;21.992;2023-07-29T08:22:10;98787.75;;;25.96;62.73
50710;BME280;37033;49.994;21.992;2023-07-29T08:24:41;98789.21;;;26.17;62.26
50710;BME280;37033;49.994;21.992;2023-07-29T08:27:12;98792.33;;;26.27;61.57
50710;BME280;37033;49.994;21.992;2023-07-29T08:29:43;98788.70;;;26.39;61.73
50710;BME280;37033;49.994;21.992;2023-07-29T08:32:13;98785.98;;;26.58;61.31
50710;BME280;37033;49.994;21.992;2023-07-29T08:34:44;98783.48;;;26.78;61.45
50710;BME280;37033;49.994;21.992;2023-07-29T08:37:15;98783.59;;;26.97;60.28
50710;BME280;37033;49.994;21.992;2023-07-29T08:39:45;98780.41;;;27.24;61.03
50710;BME280;37033;49.994;21.992;2023-07-29T08:42:17;98782.83;;;27.46;58.47
50710;BME280;37033;49.994;21.992;2023-07-29T08:44:50;98784.72;;;27.49;58.19
50710;BME280;37033;49.994;21.992;2023-07-29T08:47:24;98784.33;;;27.50;57.89
50710;BME280;37033;49.994;21.992;2023-07-29T08:49:55;98777.58;;;27.55;58.02
50710;BME280;37033;49.994;21.992;2023-07-29T08:52:27;98782.25;;;27.57;57.22
50710;BME280;37033;49.994;21.992;2023-07-29T08:55:01;98782.27;;;27.71;57.35
50710;BME280;37033;49.994;21.992;2023-07-29T08:57:32;98782.58;;;27.80;56.21
50710;BME280;37033;49.994;21.992;2023-07-29T09:00:04;98780.45;;;27.82;56.64
50710;BME280;37033;49.994;21.992;2023-07-29T09:02:35;98776.37;;;27.89;56.24
50710;BME280;37033;49.994;21.992;2023-07-29T09:05:07;98774.98;;;28.01;56.38
50710;BME280;37033;49.994;21.992;2023-07-29T09:07:39;98774.42;;;28.22;55.65
50710;BME280;37033;49.994;21.992;2023-07-29T09:10:14;98773.40;;;28.42;56.27
50710;BME280;37033;49.994;21.992;2023-07-29T09:12:45;98775.45;;;28.72;55.34
50710;BME280;37033;49.994;21.992;2023-07-29T09:15:27;98778.52;;;28.80;54.47
50710;BME280;37033;49.994;21.992;2023-07-29T09:17:59;98774.95;;;28.95;53.83
50710;BME280;37033;49.994;21.992;2023-07-29T09:20:29;98773.21;;;29.02;54.06
50710;BME280;37033;49.994;21.992;2023-07-29T09:23:00;98774.85;;;29.15;53.89
50710;BME280;37033;49.994;21.992;2023-07-29T09:25:31;98771.64;;;29.22;53.43
50710;BME280;37033;49.994;21.992;2023-07-29T09:28:09;98767.41;;;29.44;53.65
50710;BME280;37033;49.994;21.992;2023-07-29T09:30:41;98767.98;;;29.67;52.52
50710;BME280;37033;49.994;21.992;2023-07-29T09:33:13;98768.14;;;29.83;51.90
50710;BME280;37033;49.994;21.992;2023-07-29T09:35:43;98760.30;;;29.91;51.70
50710;BME280;37033;49.994;21.992;2023-07-29T09:38:16;98757.30;;;30.06;52.30
50710;BME280;37033;49.994;21.992;2023-07-29T09:40:46;98757.73;;;30.20;51.24
50710;BME280;37033;49.994;21.992;2023-07-29T09:43:18;98761.12;;;30.02;50.35
50710;BME280;37033;49.994;21.992;2023-07-29T09:45:48;98763.73;;;29.67;50.54
50710;BME280;37033;49.994;21.992;2023-07-29T09:48:23;98763.50;;;29.31;51.06
50710;BME280;37033;49.994;21.992;2023-07-29T09:50:54;98763.74;;;29.11;52.03
50710;BME280;37033;49.994;21.992;2023-07-29T09:53:25;98765.32;;;28.91;51.53
50710;BME280;37033;49.994;21.992;2023-07-29T09:55:57;98762.61;;;28.73;52.36
50710;BME280;37033;49.994;21.992;2023-07-29T09:58:28;98768.52;;;28.62;52.05
50710;BME280;37033;49.994;21.992;2023-07-29T10:01:00;98766.98;;;28.40;51.92
50710;BME280;37033;49.994;21.992;2023-07-29T10:03:32;98768.17;;;28.24;52.74
50710;BME280;37033;49.994;21.992;2023-07-29T10:06:05;98765.80;;;28.25;53.23
50710;BME280;37033;49.994;21.992;2023-07-29T10:08:36;98764.19;;;28.25;52.92
50710;BME280;37033;49.994;21.992;2023-07-29T10:11:08;98764.41;;;28.24;52.94
50710;BME280;37033;49.994;21.992;2023-07-29T10:13:40;98762.03;;;28.41;53.00
50710;BME280;37033;49.994;21.992;2023-07-29T10:16:11;98764.68;;;28.61;52.76
50710;BME280;37033;49.994;21.992;2023-07-29T10:18:43;98761.25;;;28.68;52.07
50710;BME280;37033;49.994;21.992;2023-07-29T10:21:15;98760.39;;;28.74;52.42
50710;BME280;37033;49.994;21.992;2023-07-29T10:23:48;98754.91;;;28.96;53.17
50710;BME280;37033;49.994;21.992;2023-07-29T10:26:21;98753.58;;;29.37;52.80
50710;BME280;37033;49.994;21.992;2023-07-29T10:28:53;98746.40;;;29.88;53.25
50710;BME280;37033;49.994;21.992;2023-07-29T10:31:29;98749.42;;;30.24;50.36
50710;BME280;37033;49.994;21.992;2023-07-29T10:34:01;98746.79;;;30.31;49.84
50710;BME280;37033;49.994;21.992;2023-07-29T10:36:32;98741.20;;;30.26;49.05
50710;BME280;37033;49.994;21.992;2023-07-29T10:39:03;98737.14;;;30.19;49.59
50710;BME280;37033;49.994;21.992;2023-07-29T10:41:55;98734.36;;;30.22;49.49
50710;BME280;37033;49.994;21.992;2023-07-29T10:44:50;98735.83;;;30.34;49.63
50710;BME280;37033;49.994;21.992;2023-07-29T10:47:20;98734.27;;;30.69;50.26
50710;BME280;37033;49.994;21.992;2023-07-29T10:49:53;98726.26;;;31.01;49.67
50710;BME280;37033;49.994;21.992;2023-07-29T10:52:43;98721.92;;;31.24;49.26
50710;BME280;37033;49.994;21.992;2023-07-29T10:55:28;98721.33;;;31.41;48.52
50710;BME280;37033;49.994;21.992;2023-07-29T10:58:13;98720.33;;;31.50;47.34
50710;BME280;37033;49.994;21.992;2023-07-29T11:00:45;98720.09;;;31.52;47.36
50710;BME280;37033;49.994;21.992;2023-07-29T11:03:16;98717.11;;;31.50;46.84
50710;BME280;37033;49.994;21.992;2023-07-29T11:05:49;98717.61;;;31.34;46.78
50710;BME280;37033;49.994;21.992;2023-07-29T11:08:21;98713.50;;;31.24;46.70
50710;BME280;37033;49.994;21.992;2023-07-29T11:11:04;98714.79;;;31.29;46.12
50710;BME280;37033;49.994;21.992;2023-07-29T11:13:36;98713.27;;;31.33;46.49
50710;BME280;37033;49.994;21.992;2023-07-29T11:16:09;98713.49;;;31.51;45.78
50710;BME280;37033;49.994;21.992;2023-07-29T11:18:41;98708.61;;;31.59;45.25
50710;BME280;37033;49.994;21.992;2023-07-29T11:21:15;98710.45;;;31.57;45.31
50710;BME280;37033;49.994;21.992;2023-07-29T11:23:46;98705.48;;;31.65;45.71
50710;BME280;37033;49.994;21.992;2023-07-29T11:26:17;98713.93;;;31.75;45.04
50710;BME280;37033;49.994;21.992;2023-07-29T11:28:48;98709.91;;;31.66;44.50
50710;BME280;37033;49.994;21.992;2023-07-29T11:31:20;98706.14;;;31.65;45.05
50710;BME280;37033;49.994;21.992;2023-07-29T11:33:51;98707.26;;;31.65;44.95
50710;BME280;37033;49.994;21.992;2023-07-29T11:36:22;98711.05;;;31.77;44.45
50710;BME280;37033;49.994;21.992;2023-07-29T11:38:53;98702.61;;;31.88;44.69
50710;BME280;37033;49.994;21.992;2023-07-29T11:41:25;98699.79;;;31.95;44.05
50710;BME280;37033;49.994;21.992;2023-07-29T11:43:56;98699.31;;;31.83;44.05
50710;BME280;37033;49.994;21.992;2023-07-29T11:46:26;98701.64;;;31.85;44.49
50710;BME280;37033;49.994;21.992;2023-07-29T11:48:57;98696.98;;;31.94;44.18
50710;BME280;37033;49.994;21.992;2023-07-29T11:51:28;98696.59;;;31.79;43.75
50710;BME280;37033;49.994;21.992;2023-07-29T11:53:59;98697.05;;;31.56;43.93
50710;BME280;37033;49.994;21.992;2023-07-29T11:56:30;98700.90;;;31.46;44.80
50710;BME280;37033;49.994;21.992;2023-07-29T11:59:02;98701.36;;;31.45;44.67
50710;BME280;37033;49.994;21.992;2023-07-29T12:01:33;98698.67;;;31.33;44.19
50710;BME280;37033;49.994;21.992;2023-07-29T12:04:06;98697.29;;;31.26;44.58
50710;BME280;37033;49.994;21.992;2023-07-29T12:06:37;98705.68;;;31.10;43.31
50710;BME280;37033;49.994;21.992;2023-07-29T12:09:09;98701.70;;;30.95;43.79
50710;BME280;37033;49.994;21.992;2023-07-29T12:11:40;98698.84;;;31.03;43.06
50710;BME280;37033;49.994;21.992;2023-07-29T12:14:12;98686.83;;;31.08;43.48
50710;BME280;37033;49.994;21.992;2023-07-29T12:16:43;98684.02;;;31.42;43.32
50710;BME280;37033;49.994;21.992;2023-07-29T12:19:15;98683.33;;;31.51;42.51
50710;BME280;37033;49.994;21.992;2023-07-29T12:21:47;98683.09;;;31.49;42.78
50710;BME280;37033;49.994;21.992;2023-07-29T12:24:18;98686.78;;;31.56;42.65
50710;BME280;37033;49.994;21.992;2023-07-29T12:26:49;98686.79;;;31.53;42.24
50710;BME280;37033;49.994;21.992;2023-07-29T12:29:21;98688.79;;;31.59;42.65
50710;BME280;37033;49.994;21.992;2023-07-29T12:31:59;98689.04;;;31.54;42.35
50710;BME280;37033;49.994;21.992;2023-07-29T12:34:31;98689.48;;;31.43;42.24
50710;BME280;37033;49.994;21.992;2023-07-29T12:37:04;98687.27;;;31.22;41.69
50710;BME280;37033;49.994;21.992;2023-07-29T12:39:34;98693.18;;;30.92;41.49
50710;BME280;37033;49.994;21.992;2023-07-29T12:42:06;98695.66;;;30.56;41.98
50710;BME280;37033;49.994;21.992;2023-07-29T12:44:37;98702.84;;;30.28;42.57
50710;BME280;37033;49.994;21.992;2023-07-29T12:47:08;98701.39;;;30.03;42.66
50710;BME280;37033;49.994;21.992;2023-07-29T12:49:40;98700.43;;;29.75;43.33
50710;BME280;37033;49.994;21.992;2023-07-29T12:52:11;98693.46;;;29.57;43.76
50710;BME280;37033;49.994;21.992;2023-07-29T12:54:42;98685.79;;;29.32;44.00
50710;BME280;37033;49.994;21.992;2023-07-29T12:57:13;98685.30;;;29.10;44.40
50710;BME280;37033;49.994;21.992;2023-07-29T12:59:44;98681.83;;;28.94;44.92
50710;BME280;37033;49.994;21.992;2023-07-29T13:02:15;98683.42;;;28.81;45.37
50710;BME280;37033;49.994;21.992;2023-07-29T13:04:45;98679.10;;;28.80;45.63
50710;BME280;37033;49.994;21.992;2023-07-29T13:07:16;98679.16;;;28.71;45.35
50710;BME280;37033;49.994;21.992;2023-07-29T13:09:47;98679.49;;;28.67;45.91
50710;BME280;37033;49.994;21.992;2023-07-29T13:12:17;98685.60;;;28.68;46.05